sensor_id;sensor_type;location;lat;lon;timestamp;pressure;altitude;pressure_sealevel;temperature;humidity
22000;BME280;11164;48.818;2.322;2022-09-25T08:06:41;100664.34;;;11.95;55.64
22000;BME280;11164;48.818;2.322;2022-09-25T08:09:06;100656.84;;;12.50;53.72
22000;BME280;11164;48.818;2.322;2022-09-25T08:11:32;100662.63;;;12.94;52.65
22000;BME280;11164;48.818;2.322;2022-09-25T08:13:58;100662.53;;;13.21;51.94
22000;BME280;11164;48.818;2.322;2022-09-25T08:16:23;100663.03;;;13.49;51.36
22000;BME280;11164;48.818;2.322;2022-09-25T08:18:49;100648.00;;;13.85;50.76
22000;BME280;11164;48.818;2.322;2022-09-25T08:21:17;100652.44;;;14.12;50.33
22000;BME280;11164;48.818;2.322;2022-09-25T08:23:47;100654.28;;;14.18;49.93
22000;BME280;11164;48.818;2.322;2022-09-25T08:26:14;100648.91;;;14.11;50.30
22000;BME280;11164;48.818;2.322;2022-09-25T08:28:40;100644.53;;;14.10;50.28
22000;BME280;11164;48.818;2.322;2022-09-25T08:31:06;100661.50;;;14.24;50.23
22000;BME280;11164;48.818;2.322;2022-09-25T08:33:32;100661.00;;;14.09;50.19
22000;BME280;11164;48.818;2.322;2022-09-25T08:36:00;100665.25;;;13.98;50.75
22000;BME280;11164;48.818;2.322;2022-09-25T08:38:27;100666.31;;;13.97;50.59
22000;BME280;11164;48.818;2.322;2022-09-25T08:40:58;100672.88;;;14.14;50.26
22000;BME280;11164;48.818;2.322;2022-09-25T08:43:25;100663.47;;;14.42;49.87
22000;BME280;11164;48.818;2.322;2022-09-25T08:45:53;100662.91;;;14.33;49.82
22000;BME280;11164;48.818;2.322;2022-09-25T08:48:57;100661.53;;;14.68;48.50
22000;BME280;11164;48.818;2.322;2022-09-25T08:51:48;100653.25;;;14.81;47.92
22000;BME280;11164;48.818;2.322;2022-09-25T08:54:23;100662.75;;;14.72;47.64
22000;BME280;11164;48.818;2.322;2022-09-25T08:56:55;100655.94;;;14.88;47.44
22000;BME280;11164;48.818;2.322;2022-09-25T08:59:35;100636.97;;;15.18;47.79
22000;BME280;11164;48.818;2.322;2022-09-25T09:02:15;100653.75;;;15.15;46.24
22000;BME280;11164;48.818;2.322;2022-09-25T09:04:47;100652.28;;;15.31;47.04
22000;BME280;11164;48.818;2.322;2022-09-25T09:07:20;100653.97;;;15.44;46.86
22000;BME280;11164;48.818;2.322;2022-09-25T09:09:51;100657.56;;;15.56;47.15
22000;BME280;11164;48.818;2.322;2022-09-25T09:12:24;100657.03;;;15.66;46.76
22000;BME280;11164;48.818;2.322;2022-09-25T09:15:03;100653.81;;;15.87;46.27
22000;BME280;11164;48.818;2.322;2022-09-25T09:17:36;100658.97;;;16.19;45.79
22000;BME280;11164;48.818;2.322;2022-09-25T09:20:33;100662.31;;;15.61;45.63
22000;BME280;11164;48.818;2.322;2022-09-25T09:23:03;100649.34;;;15.32;46.98
22000;BME280;11164;48.818;2.322;2022-09-25T09:26:03;100662.31;;;15.61;45.21
22000;BME280;11164;48.818;2.322;2022-09-25T09:31:30;100651.22;;;15.62;43.83
22000;BME280;11164;48.818;2.322;2022-09-25T09:34:31;100654.91;;;16.10;43.06
22000;BME280;11164;48.818;2.322;2022-09-25T09:40:16;100653.84;;;15.99;42.75
22000;BME280;11164;48.818;2.322;2022-09-25T09:42:53;100658.25;;;16.24;42.75
22000;BME280;11164;48.818;2.322;2022-09-25T09:45:35;100667.84;;;16.38;42.90
22000;BME280;11164;48.818;2.322;2022-09-25T09:48:29;100666.19;;;16.49;42.16
22000;BME280;11164;48.818;2.322;2022-09-25T09:51:25;100656.00;;;16.21;38.98
22000;BME280;11164;48.818;2.322;2022-09-25T09:53:57;100655.16;;;15.97;43.14
22000;BME280;11164;48.818;2.322;2022-09-25T09:56:28;100638.13;;;16.13;42.58
22000;BME280;11164;48.818;2.322;2022-09-25T09:58:57;100650.91;;;16.36;43.08
22000;BME280;11164;48.818;2.322;2022-09-25T10:01:30;100648.69;;;16.21;42.71
22000;BME280;11164;48.818;2.322;2022-09-25T10:04:13;100653.75;;;16.41;39.20
22000;BME280;11164;48.818;2.322;2022-09-25T10:06:53;100659.78;;;16.55;37.95
22000;BME280;11164;48.818;2.322;2022-09-25T10:09:19;100660.59;;;16.08;42.25
22000;BME280;11164;48.818;2.322;2022-09-25T10:11:48;100657.34;;;16.42;40.90
22000;BME280;11164;48.818;2.322;2022-09-25T10:14:17;100653.06;;;16.81;40.80
22000;BME280;11164;48.818;2.322;2022-09-25T10:16:47;100651.75;;;16.96;40.57
22000;BME280;11164;48.818;2.322;2022-09-25T10:19:27;100648.81;;;16.85;37.14
22000;BME280;11164;48.818;2.322;2022-09-25T10:21:59;100638.28;;;17.18;39.31
22000;BME280;11164;48.818;2.322;2022-09-25T10:30:06;100644.16;;;16.98;37.87
22000;BME280;11164;48.818;2.322;2022-09-25T10:35:20;100638.00;;;17.72;37.44
22000;BME280;11164;48.818;2.322;2022-09-25T10:37:49;100635.81;;;17.45;38.42
22000;BME280;11164;48.818;2.322;2022-09-25T10:40:35;100629.78;;;17.14;34.89
22000;BME280;11164;48.818;2.322;2022-09-25T10:45:33;100627.06;;;17.43;38.18
22000;BME280;11164;48.818;2.322;2022-09-25T10:47:59;100629.38;;;17.63;37.97
22000;BME280;11164;48.818;2.322;2022-09-25T10:50:43;100627.91;;;18.06;36.87
22000;BME280;11164;48.818;2.322;2022-09-25T10:53:26;100628.19;;;18.38;33.44
22000;BME280;11164;48.818;2.322;2022-09-25T10:56:01;100619.56;;;18.47;31.92
22000;BME280;11164;48.818;2.322;2022-09-25T10:58:37;100627.09;;;18.06;34.70
22000;BME280;11164;48.818;2.322;2022-09-25T11:01:06;100625.66;;;17.69;37.09
22000;BME280;11164;48.818;2.322;2022-09-25T11:03:36;100613.38;;;17.67;37.31
22000;BME280;11164;48.818;2.322;2022-09-25T11:06:21;100625.13;;;17.84;35.85
22000;BME280;11164;48.818;2.322;2022-09-25T11:11:25;100629.66;;;17.95;36.08
22000;BME280;11164;48.818;2.322;2022-09-25T11:13:53;100625.44;;;17.71;36.66
22000;BME280;11164;48.818;2.322;2022-09-25T11:16:19;100625.50;;;17.76;36.32
22000;BME280;11164;48.818;2.322;2022-09-25T11:18:48;100631.78;;;17.76;34.97
22000;BME280;11164;48.818;2.322;2022-09-25T11:21:36;100632.41;;;17.50;33.41
22000;BME280;11164;48.818;2.322;2022-09-25T11:29:49;100645.47;;;18.10;31.27
22000;BME280;11164;48.818;2.322;2022-09-25T11:32:25;100643.63;;;18.16;34.88
22000;BME280;11164;48.818;2.322;2022-09-25T11:35:20;100640.91;;;18.16;32.21
22000;BME280;11164;48.818;2.322;2022-09-25T11:41:03;100642.81;;;18.32;33.03
22000;BME280;11164;48.818;2.322;2022-09-25T11:46:20;100631.31;;;17.96;32.99
22000;BME280;11164;48.818;2.322;2022-09-25T11:48:54;100635.22;;;18.34;34.31
22000;BME280;11164;48.818;2.322;2022-09-25T11:54:16;100635.06;;;18.41;31.98
22000;BME280;11164;48.818;2.322;2022-09-25T12:08:05;100633.63;;;18.05;34.48
22000;BME280;11164;48.818;2.322;2022-09-25T12:11:03;100632.88;;;18.09;33.04
22000;BME280;11164;48.818;2.322;2022-09-25T12:16:15;100621.88;;;18.21;34.36
22000;BME280;11164;48.818;2.322;2022-09-25T12:21:51;100616.78;;;18.42;33.17
22000;BME280;11164;48.818;2.322;2022-09-25T12:27:23;100614.03;;;18.25;32.44
22000;BME280;11164;48.818;2.322;2022-09-25T12:30:44;100607.44;;;18.04;33.46
22000;BME280;11164;48.818;2.322;2022-09-25T12:35:31;100612.78;;;18.49;32.86
22000;BME280;11164;48.818;2.322;2022-09-25T12:38:02;100605.94;;;18.30;33.79
22000;BME280;11164;48.818;2.322;2022-09-25T12:43:27;100599.31;;;18.26;33.21
22000;BME280;11164;48.818;2.322;2022-09-25T12:46:00;100605.47;;;18.33;32.82
22000;BME280;11164;48.818;2.322;2022-09-25T12:48:36;100601.31;;;20.33;29.80
22000;BME280;11164;48.818;2.322;2022-09-25T12:51:08;100591.44;;;22.25;27.27
22000;BME280;11164;48.818;2.322;2022-09-25T12:53:57;100593.81;;;23.33;24.21
22000;BME280;11164;48.818;2.322;2022-09-25T12:59:19;100580.72;;;22.39;27.36
22000;BME280;11164;48.818;2.322;2022-09-25T13:02:10;100583.47;;;22.23;27.00
22000;BME280;11164;48.818;2.322;2022-09-25T13:12:48;100581.16;;;20.49;30.87
22000;BME280;11164;48.818;2.322;2022-09-25T13:15:21;100571.28;;;21.06;30.09
22000;BME280;11164;48.818;2.322;2022-09-25T13:17:48;100575.78;;;21.59;29.78
22000;BME280;11164;48.818;2.322;2022-09-25T13:22:57;100568.28;;;21.18;30.37
22000;BME280;11164;48.818;2.322;2022-09-25T13:25:24;100580.81;;;20.88;30.84
22000;BME280;11164;48.818;2.322;2022-09-25T13:27:50;100571.69;;;20.24;30.95
22000;BME280;11164;48.818;2.322;2022-09-25T13:30:27;100560.78;;;19.92;28.55
22000;BME280;11164;48.818;2.322;2022-09-25T13:32:55;100569.72;;;20.57;30.35
22000;BME280;11164;48.818;2.322;2022-09-25T13:35:23;100574.59;;;21.24;29.59
22000;BME280;11164;48.818;2.322;2022-09-25T13:37:51;;;;21.74;
22000;BME280;11164;48.818;2.322;2022-09-25T13:40:32;100559.06;;;22.17;28.26
22000;BME280;11164;48.818;2.322;2022-09-25T13:43:22;100548.81;;;22.48;27.38
22000;BME280;11164;48.818;2.322;2022-09-25T13:48:45;100557.09;;;23.82;27.34
22000;BME280;11164;48.818;2.322;2022-09-25T13:54:03;100554.38;;;21.76;27.93
22000;BME280;11164;48.818;2.322;2022-09-25T14:01:53;100555.94;;;21.05;29.19
22000;BME280;11164;48.818;2.322;2022-09-25T14:04:29;100551.25;;;21.00;27.07
22000;BME280;11164;48.818;2.322;2022-09-25T14:07:10;100547.66;;;20.90;28.12
22000;BME280;11164;48.818;2.322;2022-09-25T14:09:42;100546.03;;;20.36;28.44
22000;BME280;11164;48.818;2.322;2022-09-25T14:12:25;100555.75;;;20.16;28.02
22000;BME280;11164;48.818;2.322;2022-09-25T14:14:57;100552.34;;;20.36;28.93
22000;BME280;11164;48.818;2.322;2022-09-25T14:17:28;100548.72;;;20.25;29.14
22000;BME280;11164;48.818;2.322;2022-09-25T14:19:56;100551.22;;;20.32;28.91
22000;BME280;11164;48.818;2.322;2022-09-25T14:22:38;100545.25;;;19.98;28.04
22000;BME280;11164;48.818;2.322;2022-09-25T14:25:23;100550.00;;;19.75;28.99
22000;BME280;11164;48.818;2.322;2022-09-25T14:27:51;100548.59;;;19.40;29.66
22000;BME280;11164;48.818;2.322;2022-09-25T14:30:19;100548.53;;;19.35;29.71
22000;BME280;11164;48.818;2.322;2022-09-25T14:38:51;100549.56;;;19.29;29.17
22000;BME280;11164;48.818;2.322;2022-09-25T14:41:33;100543.78;;;19.25;29.86
22000;BME280;11164;48.818;2.322;2022-09-25T14:46:58;100533.53;;;22.11;27.51
22000;BME280;11164;48.818;2.322;2022-09-25T14:49:29;100531.53;;;22.37;27.25
22000;BME280;11164;48.818;2.322;2022-09-25T14:52:03;100525.22;;;22.26;27.49
22000;BME280;11164;48.818;2.322;2022-09-25T14:54:33;100520.41;;;22.73;27.56
22000;BME280;11164;48.818;2.322;2022-09-25T14:57:01;100522.84;;;24.71;25.44
22000;BME280;11164;48.818;2.322;2022-09-25T15:02:30;100528.78;;;26.20;24.42
22000;BME280;11164;48.818;2.322;2022-09-25T15:05:15;100515.66;;;27.40;23.41
22000;BME280;11164;48.818;2.322;2022-09-25T15:07:42;100522.16;;;27.13;23.56
22000;BME280;11164;48.818;2.322;2022-09-25T15:10:34;100524.94;;;24.79;23.58
22000;BME280;11164;48.818;2.322;2022-09-25T15:13:15;100529.59;;;23.48;25.06
22000;BME280;11164;48.818;2.322;2022-09-25T15:15:41;100527.19;;;23.70;26.51
22000;BME280;11164;48.818;2.322;2022-09-25T15:18:35;100533.19;;;24.60;25.65
22000;BME280;11164;48.818;2.322;2022-09-25T15:21:03;100526.81;;;26.07;24.21
22000;BME280;11164;48.818;2.322;2022-09-25T15:23:32;100528.69;;;26.67;23.81
22000;BME280;11164;48.818;2.322;2022-09-25T15:25:59;100513.84;;;26.63;24.02
22000;BME280;11164;48.818;2.322;2022-09-25T15:28:26;100516.75;;;25.50;24.91
22000;BME280;11164;48.818;2.322;2022-09-25T15:30:56;100514.53;;;25.99;24.59
22000;BME280;11164;48.818;2.322;2022-09-25T15:33:28;100507.78;;;25.91;23.91
22000;BME280;11164;48.818;2.322;2022-09-25T15:36:02;100507.63;;;23.03;27.25
22000;BME280;11164;48.818;2.322;2022-09-25T15:38:35;100509.66;;;21.60;28.54
22000;BME280;11164;48.818;2.322;2022-09-25T15:41:02;100518.06;;;20.92;29.17
22000;BME280;11164;48.818;2.322;2022-09-25T15:43:30;100520.13;;;20.54;29.33
22000;BME280;11164;48.818;2.322;2022-09-25T15:46:22;100510.41;;;20.31;29.42
22000;BME280;11164;48.818;2.322;2022-09-25T15:48:55;100514.03;;;19.61;29.97
22000;BME280;11164;48.818;2.322;2022-09-25T15:51:24;100518.66;;;19.61;29.73
22000;BME280;11164;48.818;2.322;2022-09-25T15:53:59;100513.09;;;19.45;29.89
22000;BME280;11164;48.818;2.322;2022-09-25T15:56:27;100509.38;;;19.29;29.82
22000;BME280;11164;48.818;2.322;2022-09-25T15:58:56;100519.94;;;18.93;30.30
22000;BME280;11164;48.818;2.322;2022-09-25T16:01:25;100522.28;;;18.41;31.29
22000;BME280;11164;48.818;2.322;2022-09-25T16:04:17;100522.22;;;17.96;32.70
22000;BME280;11164;48.818;2.322;2022-09-25T16:09:45;100517.13;;;17.37;34.29
22000;BME280;11164;48.818;2.322;2022-09-25T16:14:52;100535.69;;;16.95;33.89
22000;BME280;11164;48.818;2.322;2022-09-25T16:17:27;100526.41;;;17.08;34.01
22000;BME280;11164;48.818;2.322;2022-09-25T16:22:53;100533.47;;;17.20;33.87
22000;BME280;11164;48.818;2.322;2022-09-25T16:25:42;100545.72;;;17.06;35.44
22000;BME280;11164;48.818;2.322;2022-09-25T16:28:19;100549.59;;;16.81;35.03
22000;BME280;11164;48.818;2.322;2022-09-25T16:30:47;100559.13;;;16.43;35.15
22000;BME280;11164;48.818;2.322;2022-09-25T16:33:23;100548.72;;;16.17;39.11
22000;BME280;11164;48.818;2.322;2022-09-25T16:35:50;100566.94;;;16.04;36.75
22000;BME280;11164;48.818;2.322;2022-09-25T16:38:35;100564.50;;;15.72;43.26
22000;BME280;11164;48.818;2.322;2022-09-25T16:43:31;100556.78;;;15.57;38.19
22000;BME280;11164;48.818;2.322;2022-09-25T16:46:01;100557.56;;;15.77;38.09
22000;BME280;11164;48.818;2.322;2022-09-25T16:48:34;100560.34;;;15.70;40.64
22000;BME280;11164;48.818;2.322;2022-09-25T16:51:01;100562.22;;;15.88;47.21
22000;BME280;11164;48.818;2.322;2022-09-25T16:53:27;100561.66;;;15.67;38.23
22000;BME280;11164;48.818;2.322;2022-09-25T16:55:53;100565.75;;;15.58;38.59
22000;BME280;11164;48.818;2.322;2022-09-25T16:58:19;100558.69;;;15.57;38.90
22000;BME280;11164;48.818;2.322;2022-09-25T17:00:45;100560.94;;;15.60;39.04
22000;BME280;11164;48.818;2.322;2022-09-25T17:03:13;100566.66;;;15.70;39.43
22000;BME280;11164;48.818;2.322;2022-09-25T17:05:39;100564.81;;;15.83;38.92
22000;BME280;11164;48.818;2.322;2022-09-25T17:08:23;100555.09;;;15.87;40.38
22000;BME280;11164;48.818;2.322;2022-09-25T17:10:50;100561.59;;;15.98;39.08
22000;BME280;11164;48.818;2.322;2022-09-25T17:13:20;100556.41;;;15.96;39.25
22000;BME280;11164;48.818;2.322;2022-09-25T17:16:07;100556.41;;;15.96;39.33
22000;BME280;11164;48.818;2.322;2022-09-25T17:18:33;100560.91;;;16.02;39.57
22000;BME280;11164;48.818;2.322;2022-09-25T17:21:02;100558.31;;;15.96;39.96
22000;BME280;11164;48.818;2.322;2022-09-25T17:23:28;100559.97;;;15.97;40.17
22000;BME280;11164;48.818;2.322;2022-09-25T17:26:01;100573.22;;;15.93;40.43
22000;BME280;11164;48.818;2.322;2022-09-25T17:28:27;100568.22;;;15.90;40.50
22000;BME280;11164;48.818;2.322;2022-09-25T17:30:52;100570.69;;;15.80;40.95
22000;BME280;11164;48.818;2.322;2022-09-25T17:33:19;100563.94;;;15.82;40.81
22000;BME280;11164;48.818;2.322;2022-09-25T17:38:23;100560.00;;;15.66;41.48
22000;BME280;11164;48.818;2.322;2022-09-25T17:41:31;100575.19;;;15.74;41.54
22000;BME280;11164;48.818;2.322;2022-09-25T17:43:57;100578.78;;;15.68;41.32
22000;BME280;11164;48.818;2.322;2022-09-25T17:46:23;100573.00;;;15.64;41.72
22000;BME280;11164;48.818;2.322;2022-09-25T17:48:50;100568.03;;;15.61;41.40
22000;BME280;11164;48.818;2.322;2022-09-25T17:51:25;100580.19;;;15.59;42.40
22000;BME280;11164;48.818;2.322;2022-09-25T17:53:51;100586.13;;;15.25;42.61
22000;BME280;11164;48.818;2.322;2022-09-25T17:56:17;100592.53;;;15.12;42.87
22000;BME280;11164;48.818;2.322;2022-09-25T17:58:43;100585.47;;;15.11;43.19
22000;BME280;11164;48.818;2.322;2022-09-25T18:01:15;100593.28;;;15.19;43.30
22000;BME280;11164;48.818;2.322;2022-09-25T18:03:49;100585.19;;;15.31;43.03
22000;BME280;11164;48.818;2.322;2022-09-25T18:06:14;100581.66;;;15.31;42.84
22000;BME280;11164;48.818;2.322;2022-09-25T18:08:41;100578.56;;;15.27;43.18
22000;BME280;11164;48.818;2.322;2022-09-25T18:11:10;100571.00;;;15.29;43.13
22000;BME280;11164;48.818;2.322;2022-09-25T18:13:46;100573.44;;;15.19;43.39
22000;BME280;11164;48.818;2.322;2022-09-25T18:16:30;100572.34;;;15.08;45.49
22000;BME280;11164;48.818;2.322;2022-09-25T18:18:57;100580.88;;;15.12;43.58
22000;BME280;11164;48.818;2.322;2022-09-25T18:21:41;100573.88;;;15.34;45.68
22000;BME280;11164;48.818;2.322;2022-09-25T18:24:25;100575.72;;;15.22;42.83
22000;BME280;11164;48.818;2.322;2022-09-25T18:26:52;100574.50;;;15.18;42.93
22000;BME280;11164;48.818;2.322;2022-09-25T18:29:19;100568.47;;;15.16;42.94
22000;BME280;11164;48.818;2.322;2022-09-25T18:31:46;100572.41;;;15.20;42.79
22000;BME280;11164;48.818;2.322;2022-09-25T18:34:12;100571.63;;;15.13;42.83
22000;BME280;11164;48.818;2.322;2022-09-25T18:36:37;100577.59;;;15.22;42.64
22000;BME280;11164;48.818;2.322;2022-09-25T18:39:03;100572.00;;;15.16;42.89
22000;BME280;11164;48.818;2.322;2022-09-25T18:41:28;100575.84;;;15.27;42.50
22000;BME280;11164;48.818;2.322;2022-09-25T18:43:55;100573.88;;;15.34;42.46
22000;BME280;11164;48.818;2.322;2022-09-25T18:46:20;100559.78;;;15.26;42.42
22000;BME280;11164;48.818;2.322;2022-09-25T18:48:47;100582.59;;;15.36;42.53
22000;BME280;11164;48.818;2.322;2022-09-25T18:51:16;100575.50;;;15.35;42.47
22000;BME280;11164;48.818;2.322;2022-09-25T18:53:41;100572.78;;;15.24;42.70
22000;BME280;11164;48.818;2.322;2022-09-25T18:56:07;100580.72;;;15.07;43.00
22000;BME280;11164;48.818;2.322;2022-09-25T18:58:33;100585.06;;;15.08;42.68
22000;BME280;11164;48.818;2.322;2022-09-25T19:00:59;100586.38;;;15.05;42.76
22000;BME280;11164;48.818;2.322;2022-09-25T19:03:24;100579.34;;;15.16;42.66
22000;BME280;11164;48.818;2.322;2022-09-25T19:05:58;100579.19;;;15.11;42.89
22000;BME280;11164;48.818;2.322;2022-09-25T19:08:25;100569.63;;;15.08;42.54
22000;BME280;11164;48.818;2.322;2022-09-25T19:10:50;100587.78;;;15.08;42.79
22000;BME280;11164;48.818;2.322;2022-09-25T19:13:17;100587.63;;;14.91;42.99
22000;BME280;11164;48.818;2.322;2022-09-25T19:15:43;100583.59;;;14.93;42.84
22000;BME280;11164;48.818;2.322;2022-09-25T19:18:08;100588.59;;;14.96;42.71
22000;BME280;11164;48.818;2.322;2022-09-25T19:20:36;100591.28;;;14.96;42.88
22000;BME280;11164;48.818;2.322;2022-09-25T19:23:01;100590.75;;;15.06;42.59
22000;BME280;11164;48.818;2.322;2022-09-25T19:25:28;100591.06;;;14.98;43.00
22000;BME280;11164;48.818;2.322;2022-09-25T19:27:53;100581.66;;;14.82;43.15
22000;BME280;11164;48.818;2.322;2022-09-25T19:30:18;100577.13;;;14.94;43.00
22000;BME280;11164;48.818;2.322;2022-09-25T19:32:44;100586.59;;;15.04;42.81
22000;BME280;11164;48.818;2.322;2022-09-25T19:35:11;100578.00;;;15.07;42.91
22000;BME280;11164;48.818;2.322;2022-09-25T19:37:37;100582.47;;;15.01;42.95
22000;BME280;11164;48.818;2.322;2022-09-25T19:40:03;100581.03;;;14.98;42.72
22000;BME280;11164;48.818;2.322;2022-09-25T19:42:54;100568.03;;;15.00;42.79
22000;BME280;11164;48.818;2.322;2022-09-25T19:45:21;100577.03;;;15.01;42.87
22000;BME280;11164;48.818;2.322;2022-09-25T19:47:47;100585.03;;;14.96;43.10
22000;BME280;11164;48.818;2.322;2022-09-25T19:50:13;100578.16;;;14.93;42.79
22000;BME280;11164;48.818;2.322;2022-09-25T19:52:39;100587.97;;;14.94;42.91
22000;BME280;11164;48.818;2.322;2022-09-25T19:55:05;100590.56;;;14.89;42.75
22000;BME280;11164;48.818;2.322;2022-09-25T19:57:30;100586.53;;;14.92;42.49
22000;BME280;11164;48.818;2.322;2022-09-25T19:59:55;100580.63;;;14.76;43.04
22000;BME280;11164;48.818;2.322;2022-09-25T20:02:21;100574.75;;;14.79;42.63
22000;BME280;11164;48.818;2.322;2022-09-25T20:04:48;100571.16;;;14.67;42.82
22000;BME280;11164;48.818;2.322;2022-09-25T20:07:14;100583.22;;;14.53;43.12
22000;BME280;11164;48.818;2.322;2022-09-25T20:09:40;100583.38;;;14.58;42.98
22000;BME280;11164;48.818;2.322;2022-09-25T20:12:06;100573.50;;;14.63;42.76
22000;BME280;11164;48.818;2.322;2022-09-25T20:14:31;100574.31;;;14.64;42.67
22000;BME280;11164;48.818;2.322;2022-09-25T20:16:56;100578.53;;;14.60;42.58
22000;BME280;11164;48.818;2.322;2022-09-25T20:19:22;100568.28;;;14.62;42.51
22000;BME280;11164;48.818;2.322;2022-09-25T20:21:48;100570.19;;;14.61;42.48
22000;BME280;11164;48.818;2.322;2022-09-25T20:24:14;100565.47;;;14.50;42.51
22000;BME280;11164;48.818;2.322;2022-09-25T20:26:39;100556.97;;;14.47;42.48
22000;BME280;11164;48.818;2.322;2022-09-25T20:29:10;100554.69;;;14.43;42.63
22000;BME280;11164;48.818;2.322;2022-09-25T20:31:42;100557.94;;;14.34;42.42
22000;BME280;11164;48.818;2.322;2022-09-25T20:34:12;100542.72;;;14.33;42.39
22000;BME280;11164;48.818;2.322;2022-09-25T20:36:38;100538.97;;;14.34;42.36
22000;BME280;11164;48.818;2.322;2022-09-25T20:39:04;100540.84;;;14.33;42.29
22000;BME280;11164;48.818;2.322;2022-09-25T20:41:29;100540.53;;;14.41;42.25
22000;BME280;11164;48.818;2.322;2022-09-25T20:43:56;100545.59;;;14.38;42.34
22000;BME280;11164;48.818;2.322;2022-09-25T20:46:21;100543.41;;;14.47;42.05
22000;BME280;11164;48.818;2.322;2022-09-25T20:48:49;100542.38;;;14.48;42.06
22000;BME280;11164;48.818;2.322;2022-09-25T20:51:20;100537.53;;;14.50;41.92
22000;BME280;11164;48.818;2.322;2022-09-25T20:53:50;100545.00;;;14.54;41.92
22000;BME280;11164;48.818;2.322;2022-09-25T20:56:16;100542.50;;;14.53;42.04
22000;BME280;11164;48.818;2.322;2022-09-25T20:58:43;100536.13;;;14.47;42.19
22000;BME280;11164;48.818;2.322;2022-09-25T21:01:14;100551.38;;;14.41;42.35
22000;BME280;11164;48.818;2.322;2022-09-25T21:03:42;100535.72;;;14.43;42.28
22000;BME280;11164;48.818;2.322;2022-09-25T21:06:20;100538.69;;;14.42;42.44
22000;BME280;11164;48.818;2.322;2022-09-25T21:08:46;100542.59;;;14.46;42.24
22000;BME280;11164;48.818;2.322;2022-09-25T21:11:11;100524.97;;;14.37;42.26
22000;BME280;11164;48.818;2.322;2022-09-25T21:13:38;100540.69;;;14.47;42.29
22000;BME280;11164;48.818;2.322;2022-09-25T21:16:11;100545.59;;;14.38;42.55
22000;BME280;11164;48.818;2.322;2022-09-25T21:18:38;100541.44;;;14.17;42.67
22000;BME280;11164;48.818;2.322;2022-09-25T21:21:07;100553.78;;;14.13;43.44
22000;BME280;11164;48.818;2.322;2022-09-25T21:23:33;100549.56;;;14.17;42.83
22000;BME280;11164;48.818;2.322;2022-09-25T21:26:12;100542.63;;;14.02;43.78
22000;BME280;11164;48.818;2.322;2022-09-25T21:28:40;100555.03;;;14.10;42.96
22000;BME280;11164;48.818;2.322;2022-09-25T21:31:12;100551.91;;;14.13;43.30
22000;BME280;11164;48.818;2.322;2022-09-25T21:33:38;100556.19;;;14.02;43.27
22000;BME280;11164;48.818;2.322;2022-09-25T21:36:05;100561.25;;;13.92;43.41
22000;BME280;11164;48.818;2.322;2022-09-25T21:38:31;100552.75;;;13.88;43.50
22000;BME280;11164;48.818;2.322;2022-09-25T21:41:01;100554.19;;;13.91;43.41
22000;BME280;11164;48.818;2.322;2022-09-25T21:43:28;100537.25;;;13.96;43.35
22000;BME280;11164;48.818;2.322;2022-09-25T21:46:13;100542.25;;;13.99;43.27
22000;BME280;11164;48.818;2.322;2022-09-25T21:48:40;100539.38;;;14.12;42.92
22000;BME280;11164;48.818;2.322;2022-09-25T21:51:09;100541.38;;;14.23;42.97
22000;BME280;11164;48.818;2.322;2022-09-25T21:53:36;100542.34;;;14.11;43.05
22000;BME280;11164;48.818;2.322;2022-09-25T21:56:06;100538.94;;;14.15;43.04
22000;BME280;11164;48.818;2.322;2022-09-25T21:58:32;100537.56;;;14.06;43.21
22000;BME280;11164;48.818;2.322;2022-09-25T22:03:27;100522.19;;;14.00;43.53
22000;BME280;11164;48.818;2.322;2022-09-25T22:06:04;100521.31;;;14.06;43.18
22000;BME280;11164;48.818;2.322;2022-09-25T22:08:32;100519.63;;;14.05;43.23
22000;BME280;11164;48.818;2.322;2022-09-25T22:11:00;100519.47;;;14.00;43.32
22000;BME280;11164;48.818;2.322;2022-09-25T22:13:27;100516.38;;;13.96;43.12
22000;BME280;11164;48.818;2.322;2022-09-25T22:18:27;100512.84;;;13.96;43.31
22000;BME280;11164;48.818;2.322;2022-09-25T22:20:54;100518.75;;;14.11;43.14
22000;BME280;11164;48.818;2.322;2022-09-25T22:23:19;100519.13;;;14.15;43.03
22000;BME280;11164;48.818;2.322;2022-09-25T22:25:45;100505.72;;;14.01;43.26
22000;BME280;11164;48.818;2.322;2022-09-25T22:28:11;100506.47;;;14.09;42.98
22000;BME280;11164;48.818;2.322;2022-09-25T22:30:37;100507.69;;;14.13;43.12
22000;BME280;11164;48.818;2.322;2022-09-25T22:33:06;100500.44;;;14.06;43.13
22000;BME280;11164;48.818;2.322;2022-09-25T22:35:32;100503.59;;;14.03;43.16
22000;BME280;11164;48.818;2.322;2022-09-25T22:37:57;100506.47;;;14.09;43.13
22000;BME280;11164;48.818;2.322;2022-09-25T22:40:22;100502.94;;;14.08;43.05
22000;BME280;11164;48.818;2.322;2022-09-25T22:42:48;100503.69;;;14.15;42.88
22000;BME280;11164;48.818;2.322;2022-09-25T22:45:13;100508.84;;;13.98;43.49
22000;BME280;11164;48.818;2.322;2022-09-25T22:47:39;100505.41;;;13.84;43.78
22000;BME280;11164;48.818;2.322;2022-09-25T22:50:05;100501.78;;;13.72;43.83
22000;BME280;11164;48.818;2.322;2022-09-25T22:52:33;100472.72;;;13.61;43.75
22000;BME280;11164;48.818;2.322;2022-09-25T22:54:58;100498.09;;;13.92;43.52
22000;BME280;11164;48.818;2.322;2022-09-25T22:57:23;100506.47;;;14.09;43.38
22000;BME280;11164;48.818;2.322;2022-09-25T22:59:49;100489.72;;;13.68;43.91
22000;BME280;11164;48.818;2.322;2022-09-25T23:02:14;100492.28;;;13.63;44.21
22000;BME280;11164;48.818;2.322;2022-09-25T23:04:40;100480.19;;;13.65;44.23
22000;BME280;11164;48.818;2.322;2022-09-25T23:07:05;100486.91;;;13.81;43.83
22000;BME280;11164;48.818;2.322;2022-09-25T23:09:30;100482.31;;;13.82;43.79
22000;BME280;11164;48.818;2.322;2022-09-25T23:11:56;100477.38;;;13.72;44.05